sensor_id;sensor_type;location;lat;lon;timestamp;pressure;altitude;pressure_sealevel;temperature;humidity
31483;BME280;18103;52.246;8.052;2023-12-14T00:01:32;99375.41;;;5.10;100.00
31483;BME280;18103;52.246;8.052;2023-12-14T05:00:42;99843.91;;;3.92;100.00
31483;BME280;18103;52.246;8.052;2023-12-14T05:03:07;99845.94;;;4.01;100.00
31483;BME280;18103;52.246;8.052;2023-12-14T05:05:33;99841.03;;;4.11;100.00
31483;BME280;18103;52.246;8.052;2023-12-14T05:08:03;99844.19;;;4.02;100.00
31483;BME280;18103;52.246;8.052;2023-12-14T05:10:30;99856.69;;;3.97;100.00
31483;BME280;18103;52.246;8.052;2023-12-14T05:12:58;99856.78;;;3.95;100.00
31483;BME280;18103;52.246;8.052;2023-12-14T05:15:23;99856.78;;;3.95;100.00
31483;BME280;18103;52.246;8.052;2023-12-14T05:17:51;99867.50;;;3.90;100.00
31483;BME280;18103;52.246;8.052;2023-12-14T05:20:16;99860.97;;;3.98;100.00
31483;BME280;18103;52.246;8.052;2023-12-14T05:22:45;99871.59;;;3.94;100.00
31483;BME280;18103;52.246;8.052;2023-12-14T05:25:13;99868.03;;;3.96;100.00
31483;BME280;18103;52.246;8.052;2023-12-14T05:27:39;99865.63;;;3.92;100.00
31483;BME280;18103;52.246;8.052;2023-12-14T05:30:05;99876.66;;;3.98;100.00
31483;BME280;18103;52.246;8.052;2023-12-14T05:32:36;99877.25;;;3.87;100.00
31483;BME280;18103;52.246;8.052;2023-12-14T05:35:02;99873.34;;;3.94;100.00
31483;BME280;18103;52.246;8.052;2023-12-14T05:37:27;99872.88;;;3.87;100.00
31483;BME280;18103;52.246;8.052;2023-12-14T05:39:52;99885.78;;;3.90;100.00
31483;BME280;18103;52.246;8.052;2023-12-14T05:42:20;99885.31;;;3.98;100.00
31483;BME280;18103;52.246;8.052;2023-12-14T05:44:46;99879.44;;;3.94;100.00
31483;BME280;18103;52.246;8.052;2023-12-14T05:47:12;99895.03;;;3.96;100.00
31483;BME280;18103;52.246;8.052;2023-12-14T05:49:41;99892.84;;;3.88;100.00
31483;BME280;18103;52.246;8.052;2023-12-14T05:52:11;99908.00;;;3.82;100.00
31483;BME280;18103;52.246;8.052;2023-12-14T05:54:37;99913.22;;;3.82;100.00
31483;BME280;18103;52.246;8.052;2023-12-14T05:57:04;99911.56;;;3.81;100.00
31483;BME280;18103;52.246;8.052;2023-12-14T05:59:31;99918.63;;;3.79;99.62
31483;BME280;18103;52.246;8.052;2023-12-14T06:01:59;99922.94;;;3.80;100.00
31483;BME280;18103;52.246;8.052;2023-12-14T06:04:26;99915.75;;;3.83;100.00
31483;BME280;18103;52.246;8.052;2023-12-14T06:06:54;99922.25;;;3.76;100.00
31483;BME280;18103;52.246;8.052;2023-12-14T06:09:20;99921.91;;;3.82;100.00
31483;BME280;18103;52.246;8.052;2023-12-14T06:11:49;99924.25;;;3.87;100.00
31483;BME280;18103;52.246;8.052;2023-12-14T06:14:16;99925.53;;;3.80;100.00
31483;BME280;18103;52.246;8.052;2023-12-14T06:16:41;99930.66;;;3.81;100.00
31483;BME280;18103;52.246;8.052;2023-12-14T06:19:09;99929.16;;;3.77;100.00
31483;BME280;18103;52.246;8.052;2023-12-14T06:21:34;99942.03;;;3.80;100.00
31483;BME280;18103;52.246;8.052;2023-12-14T06:24:00;99941.38;;;3.76;100.00
31483;BME280;18103;52.246;8.052;2023-12-14T06:26:26;99946.59;;;3.76;100.00
31483;BME280;18103;52.246;8.052;2023-12-14T06:28:53;99952.06;;;3.88;100.00
31483;BME280;18103;52.246;8.052;2023-12-14T06:31:21;99968.63;;;3.87;100.00
31483;BME280;18103;52.246;8.052;2023-12-14T06:33:47;99977.16;;;3.74;100.00
31483;BME280;18103;52.246;8.052;2023-12-14T06:36:15;99978.16;;;3.88;100.00
31483;BME280;18103;52.246;8.052;2023-12-14T06:38:42;99975.72;;;3.85;100.00
31483;BME280;18103;52.246;8.052;2023-12-14T06:41:13;99981.56;;;3.74;100.00
31483;BME280;18103;52.246;8.052;2023-12-14T06:43:45;99989.13;;;3.79;100.00
31483;BME280;18103;52.246;8.052;2023-12-14T06:46:10;99994.25;;;3.80;100.00
31483;BME280;18103;52.246;8.052;2023-12-14T06:48:38;100008.56;;;3.73;100.00
31483;BME280;18103;52.246;8.052;2023-12-14T06:51:05;100012.50;;;3.80;100.00
31483;BME280;18103;52.246;8.052;2023-12-14T06:53:34;100014.78;;;3.70;100.00
31483;BME280;18103;52.246;8.052;2023-12-14T06:56:03;100024.31;;;3.71;100.00
31483;BME280;18103;52.246;8.052;2023-12-14T06:58:38;100034.31;;;3.79;100.00
31483;BME280;18103;52.246;8.052;2023-12-14T07:01:03;100045.28;;;3.70;100.00
31483;BME280;18103;52.246;8.052;2023-12-14T07:03:32;100053.38;;;3.81;100.00
31483;BME280;18103;52.246;8.052;2023-12-14T07:05:58;100048.84;;;3.85;100.00
31483;BME280;18103;52.246;8.052;2023-12-14T07:08:23;100062.13;;;3.80;100.00
31483;BME280;18103;52.246;8.052;2023-12-14T07:10:49;100054.81;;;3.71;100.00
31483;BME280;18103;52.246;8.052;2023-12-14T07:13:19;100053.28;;;3.83;100.00
31483;BME280;18103;52.246;8.052;2023-12-14T07:15:46;100052.03;;;3.74;100.00
31483;BME280;18103;52.246;8.052;2023-12-14T07:18:12;100060.44;;;3.63;100.00
31483;BME280;18103;52.246;8.052;2023-12-14T07:20:39;100072.13;;;3.72;100.00
31483;BME280;18103;52.246;8.052;2023-12-14T07:23:05;100077.53;;;3.69;100.00
31483;BME280;18103;52.246;8.052;2023-12-14T07:25:32;100092.78;;;3.76;100.00
31483;BME280;18103;52.246;8.052;2023-12-14T07:28:00;100092.94;;;3.89;100.00
31483;BME280;18103;52.246;8.052;2023-12-14T07:30:26;100097.50;;;3.86;100.00
31483;BME280;18103;52.246;8.052;2023-12-14T07:32:54;100101.53;;;3.91;100.00
31483;BME280;18103;52.246;8.052;2023-12-14T07:35:22;100100.44;;;3.80;100.00
31483;BME280;18103;52.246;8.052;2023-12-14T07:37:48;100117.13;;;3.77;100.00
31483;BME280;18103;52.246;8.052;2023-12-14T07:40:13;100119.03;;;3.73;100.00
31483;BME280;18103;52.246;8.052;2023-12-14T07:42:41;100122.06;;;3.66;100.00
31483;BME280;18103;52.246;8.052;2023-12-14T07:45:07;100118.81;;;3.78;100.00
31483;BME280;18103;52.246;8.052;2023-12-14T07:47:35;100127.72;;;3.74;100.00
31483;BME280;18103;52.246;8.052;2023-12-14T07:50:01;100135.00;;;3.85;100.00
31483;BME280;18103;52.246;8.052;2023-12-14T07:52:26;100136.00;;;3.82;100.00
31483;BME280;18103;52.246;8.052;2023-12-14T07:54:51;100140.69;;;3.75;99.73
31483;BME280;18103;52.246;8.052;2023-12-14T07:57:19;100144.13;;;3.76;100.00
31483;BME280;18103;52.246;8.052;2023-12-14T07:59:46;100149.13;;;3.81;100.00
31483;BME280;18103;52.246;8.052;2023-12-14T08:02:14;100153.66;;;3.77;100.00
31483;BME280;18103;52.246;8.052;2023-12-14T08:04:39;100150.69;;;3.67;100.00
31483;BME280;18103;52.246;8.052;2023-12-14T08:07:05;100152.47;;;3.83;100.00
31483;BME280;18103;52.246;8.052;2023-12-14T08:09:34;100165.44;;;3.84;100.00
31483;BME280;18103;52.246;8.052;2023-12-14T08:12:02;100167.53;;;3.77;100.00
31483;BME280;18103;52.246;8.052;2023-12-14T08:14:28;100167.31;;;3.82;100.00
31483;BME280;18103;52.246;8.052;2023-12-14T08:16:55;100177.59;;;3.85;100.00
31483;BME280;18103;52.246;8.052;2023-12-14T08:19:23;100186.44;;;3.83;100.00
31483;BME280;18103;52.246;8.052;2023-12-14T08:21:51;100191.81;;;3.80;100.00
31483;BME280;18103;52.246;8.052;2023-12-14T08:24:16;100190.56;;;3.87;99.96
31483;BME280;18103;52.246;8.052;2023-12-14T08:26:41;100184.97;;;3.77;99.15
31483;BME280;18103;52.246;8.052;2023-12-14T08:29:10;100185.00;;;3.93;100.00
31483;BME280;18103;52.246;8.052;2023-12-14T08:31:35;100187.63;;;3.93;100.00
31483;BME280;18103;52.246;8.052;2023-12-14T08:34:05;100193.25;;;3.85;100.00
31483;BME280;18103;52.246;8.052;2023-12-14T08:36:33;100197.22;;;3.92;100.00
31483;BME280;18103;52.246;8.052;2023-12-14T08:39:00;100204.97;;;3.94;100.00
31483;BME280;18103;52.246;8.052;2023-12-14T08:41:26;100211.06;;;3.94;100.00
31483;BME280;18103;52.246;8.052;2023-12-14T08:43:51;100216.78;;;4.01;100.00
31483;BME280;18103;52.246;8.052;2023-12-14T08:46:19;100216.34;;;3.93;100.00
31483;BME280;18103;52.246;8.052;2023-12-14T08:48:48;100222.88;;;3.84;100.00
31483;BME280;18103;52.246;8.052;2023-12-14T08:51:17;100231.41;;;3.88;100.00
31483;BME280;18103;52.246;8.052;2023-12-14T08:53:43;100228.31;;;3.97;99.79
31483;BME280;18103;52.246;8.052;2023-12-14T08:56:11;100228.75;;;4.05;100.00
31483;BME280;18103;52.246;8.052;2023-12-14T08:58:36;100234.81;;;4.06;100.00
31483;BME280;18103;52.246;8.052;2023-12-14T09:01:04;100234.47;;;3.96;100.00
31483;BME280;18103;52.246;8.052;2023-12-14T09:03:32;100241.88;;;3.88;100.00
31483;BME280;18103;52.246;8.052;2023-12-14T09:05:57;100252.69;;;3.80;100.00
31483;BME280;18103;52.246;8.052;2023-12-14T09:08:26;100245.41;;;4.03;100.00
31483;BME280;18103;52.246;8.052;2023-12-14T09:10:53;100251.88;;;3.96;100.00
31483;BME280;18103;52.246;8.052;2023-12-14T09:13:18;100261.09;;;4.03;100.00
31483;BME280;18103;52.246;8.052;2023-12-14T09:15:48;100261.59;;;3.93;100.00
31483;BME280;18103;52.246;8.052;2023-12-14T09:18:17;100267.00;;;4.06;99.80
31483;BME280;18103;52.246;8.052;2023-12-14T09:20:42;100260.13;;;3.88;100.00
31483;BME280;18103;52.246;8.052;2023-12-14T09:23:09;100269.63;;;3.89;100.00
31483;BME280;18103;52.246;8.052;2023-12-14T09:25:36;100270.94;;;3.98;100.00
31483;BME280;18103;52.246;8.052;2023-12-14T09:28:05;100282.47;;;3.93;100.00
31483;BME280;18103;52.246;8.052;2023-12-14T09:30:30;100275.59;;;3.75;100.00
31483;BME280;18103;52.246;8.052;2023-12-14T09:32:58;100280.75;;;3.76;100.00
31483;BME280;18103;52.246;8.052;2023-12-14T09:35:23;100284.88;;;3.81;100.00
31483;BME280;18103;52.246;8.052;2023-12-14T09:37:53;100287.88;;;3.90;100.00
31483;BME280;18103;52.246;8.052;2023-12-14T09:40:19;100289.53;;;3.91;100.00
31483;BME280;18103;52.246;8.052;2023-12-14T09:42:46;100299.06;;;3.92;100.00
31483;BME280;18103;52.246;8.052;2023-12-14T09:45:12;100307.72;;;3.93;100.00
31483;BME280;18103;52.246;8.052;2023-12-14T09:47:41;100308.88;;;3.87;100.00
31483;BME280;18103;52.246;8.052;2023-12-14T09:50:07;100308.75;;;3.90;100.00
31483;BME280;18103;52.246;8.052;2023-12-14T09:52:35;100319.88;;;3.94;100.00
31483;BME280;18103;52.246;8.052;2023-12-14T09:55:00;100322.19;;;4.00;100.00
31483;BME280;18103;52.246;8.052;2023-12-14T09:57:31;100319.69;;;3.97;100.00
31483;BME280;18103;52.246;8.052;2023-12-14T09:59:57;100325.09;;;3.94;100.00
31483;BME280;18103;52.246;8.052;2023-12-14T10:02:26;100327.69;;;4.11;100.00
31483;BME280;18103;52.246;8.052;2023-12-14T10:04:57;100332.66;;;4.16;99.53
31483;BME280;18103;52.246;8.052;2023-12-14T10:07:23;100333.00;;;4.10;99.71
31483;BME280;18103;52.246;8.052;2023-12-14T10:09:48;100336.53;;;4.09;100.00
31483;BME280;18103;52.246;8.052;2023-12-14T10:12:15;100336.59;;;4.07;100.00
31483;BME280;18103;52.246;8.052;2023-12-14T10:14:40;100339.31;;;4.06;100.00
31483;BME280;18103;52.246;8.052;2023-12-14T10:19:50;100346.22;;;3.89;99.64
31483;BME280;18103;52.246;8.052;2023-12-14T10:22:16;100353.66;;;3.97;99.36
31483;BME280;18103;52.246;8.052;2023-12-14T10:24:45;100345.75;;;3.99;99.20
31483;BME280;18103;52.246;8.052;2023-12-14T10:27:16;100362.50;;;3.94;99.63
31483;BME280;18103;52.246;8.052;2023-12-14T10:29:42;100358.97;;;3.96;98.72
31483;BME280;18103;52.246;8.052;2023-12-14T10:32:10;100367.13;;;3.89;99.66
31483;BME280;18103;52.246;8.052;2023-12-14T10:34:41;100366.13;;;3.92;99.87
31483;BME280;18103;52.246;8.052;2023-12-14T10:37:07;100369.47;;;3.94;99.56
31483;BME280;18103;52.246;8.052;2023-12-14T10:39:35;100368.09;;;3.87;99.53
31483;BME280;18103;52.246;8.052;2023-12-14T10:42:04;100373.63;;;3.98;99.34
31483;BME280;18103;52.246;8.052;2023-12-14T10:44:42;100378.69;;;4.01;99.48
31483;BME280;18103;52.246;8.052;2023-12-14T10:47:11;100376.63;;;4.08;99.37
31483;BME280;18103;52.246;8.052;2023-12-14T10:49:41;100371.09;;;3.97;99.67
31483;BME280;18103;52.246;8.052;2023-12-14T10:52:11;100381.94;;;4.06;99.73
31483;BME280;18103;52.246;8.052;2023-12-14T10:54:38;100381.84;;;4.25;99.55
31483;BME280;18103;52.246;8.052;2023-12-14T10:57:06;100381.06;;;4.23;99.86
31483;BME280;18103;52.246;8.052;2023-12-14T10:59:35;100379.31;;;4.06;99.50
31483;BME280;18103;52.246;8.052;2023-12-14T11:02:07;100385.53;;;4.04;99.63
31483;BME280;18103;52.246;8.052;2023-12-14T11:05:04;100381.75;;;4.09;99.20
31483;BME280;18103;52.246;8.052;2023-12-14T11:10:20;100388.53;;;4.14;98.82
31483;BME280;18103;52.246;8.052;2023-12-14T11:12:57;100385.66;;;4.18;98.60
31483;BME280;18103;52.246;8.052;2023-12-14T11:15:27;100386.53;;;4.19;98.69
31483;BME280;18103;52.246;8.052;2023-12-14T11:20:47;100407.34;;;4.20;98.21
31483;BME280;18103;52.246;8.052;2023-12-14T11:25:53;100411.88;;;4.17;99.09
31483;BME280;18103;52.246;8.052;2023-12-14T11:28:23;100421.31;;;4.19;98.78
31483;BME280;18103;52.246;8.052;2023-12-14T11:30:52;100426.38;;;4.22;98.15
31483;BME280;18103;52.246;8.052;2023-12-14T11:33:19;100438.69;;;4.20;98.23
31483;BME280;18103;52.246;8.052;2023-12-14T11:35:47;100431.38;;;4.09;97.95
31483;BME280;18103;52.246;8.052;2023-12-14T11:38:12;100442.81;;;4.07;98.49
31483;BME280;18103;52.246;8.052;2023-12-14T11:40:44;100439.31;;;4.08;98.75
31483;BME280;18103;52.246;8.052;2023-12-14T11:43:12;100441.63;;;4.14;98.61
31483;BME280;18103;52.246;8.052;2023-12-14T11:45:40;100444.28;;;4.13;98.96
31483;BME280;18103;52.246;8.052;2023-12-14T11:48:09;100457.13;;;4.17;98.00
31483;BME280;18103;52.246;8.052;2023-12-14T11:50:40;100454.53;;;4.17;98.57
31483;BME280;18103;52.246;8.052;2023-12-14T11:53:06;100453.22;;;4.26;98.32
31483;BME280;18103;52.246;8.052;2023-12-14T11:55:37;100460.44;;;4.21;98.72
31483;BME280;18103;52.246;8.052;2023-12-14T11:58:04;100466.66;;;4.18;98.26
31483;BME280;18103;52.246;8.052;2023-12-14T12:00:34;100459.13;;;4.12;98.42
31483;BME280;18103;52.246;8.052;2023-12-14T12:05:38;100461.38;;;4.20;98.02
31483;BME280;18103;52.246;8.052;2023-12-14T12:08:04;100458.97;;;4.15;98.09
31483;BME280;18103;52.246;8.052;2023-12-14T12:10:33;100459.97;;;4.13;98.31
31483;BME280;18103;52.246;8.052;2023-12-14T12:13:03;100458.75;;;4.20;98.50
31483;BME280;18103;52.246;8.052;2023-12-14T12:15:33;100465.72;;;4.19;98.40
31483;BME280;18103;52.246;8.052;2023-12-14T12:18:20;100466.53;;;4.21;98.18
31483;BME280;18103;52.246;8.052;2023-12-14T12:20:48;100463.75;;;4.24;98.67
31483;BME280;18103;52.246;8.052;2023-12-14T12:23:20;100461.22;;;4.23;97.30
31483;BME280;18103;52.246;8.052;2023-12-14T12:25:50;100466.91;;;4.31;97.64
31483;BME280;18103;52.246;8.052;2023-12-14T12:28:15;100463.41;;;4.31;98.55
31483;BME280;18103;52.246;8.052;2023-12-14T12:30:43;100462.97;;;4.40;97.70
31483;BME280;18103;52.246;8.052;2023-12-14T12:33:08;100461.28;;;4.39;97.59
31483;BME280;18103;52.246;8.052;2023-12-14T12:35:36;100458.19;;;4.31;97.89
31483;BME280;18103;52.246;8.052;2023-12-14T12:38:04;100464.66;;;4.23;98.26
31483;BME280;18103;52.246;8.052;2023-12-14T12:40:31;100466.75;;;4.34;98.10
31483;BME280;18103;52.246;8.052;2023-12-14T12:43:00;100466.34;;;4.42;97.76
31483;BME280;18103;52.246;8.052;2023-12-14T12:45:25;100460.91;;;4.47;97.46
31483;BME280;18103;52.246;8.052;2023-12-14T12:47:54;100463.34;;;4.50;97.33
31483;BME280;18103;52.246;8.052;2023-12-14T12:50:22;100459.56;;;4.38;98.18
31483;BME280;18103;52.246;8.052;2023-12-14T12:52:48;100455.97;;;4.40;98.14
31483;BME280;18103;52.246;8.052;2023-12-14T12:55:14;100464.75;;;4.39;97.75
31483;BME280;18103;52.246;8.052;2023-12-14T12:57:42;100460.41;;;4.56;97.60
31483;BME280;18103;52.246;8.052;2023-12-14T13:00:08;100472.31;;;4.61;97.69
31483;BME280;18103;52.246;8.052;2023-12-14T13:02:40;100475.25;;;4.55;97.81
31483;BME280;18103;52.246;8.052;2023-12-14T13:05:09;100484.25;;;4.50;98.24
31483;BME280;18103;52.246;8.052;2023-12-14T13:07:37;100480.25;;;4.42;98.17
31483;BME280;18103;52.246;8.052;2023-12-14T13:10:04;100491.47;;;4.44;98.00
31483;BME280;18103;52.246;8.052;2023-12-14T13:12:32;100494.94;;;4.45;97.80
31483;BME280;18103;52.246;8.052;2023-12-14T13:15:00;100500.56;;;4.55;97.80
31483;BME280;18103;52.246;8.052;2023-12-14T13:17:26;100507.63;;;4.53;98.06
31483;BME280;18103;52.246;8.052;2023-12-14T13:19:54;100518.16;;;4.51;97.81
31483;BME280;18103;52.246;8.052;2023-12-14T13:22:22;100513.31;;;4.61;97.69
31483;BME280;18103;52.246;8.052;2023-12-14T13:24:47;100517.63;;;4.62;97.90
31483;BME280;18103;52.246;8.052;2023-12-14T13:27:16;100524.91;;;4.55;97.55
31483;BME280;18103;52.246;8.052;2023-12-14T13:29:44;100523.38;;;4.69;97.32
31483;BME280;18103;52.246;8.052;2023-12-14T13:32:13;100525.38;;;4.63;97.04
31483;BME280;18103;52.246;8.052;2023-12-14T13:34:41;100533.47;;;4.59;97.03
31483;BME280;18103;52.246;8.052;2023-12-14T13:37:08;100536.66;;;4.64;96.66
31483;BME280;18103;52.246;8.052;2023-12-14T13:39:35;100545.91;;;4.54;97.02
31483;BME280;18103;52.246;8.052;2023-12-14T13:42:06;100550.75;;;4.44;97.95
31483;BME280;18103;52.246;8.052;2023-12-14T13:44:32;100558.44;;;4.30;98.13
31483;BME280;18103;52.246;8.052;2023-12-14T13:47:01;100558.88;;;4.38;97.09
31483;BME280;18103;52.246;8.052;2023-12-14T13:49:28;100551.66;;;4.43;96.80
31483;BME280;18103;52.246;8.052;2023-12-14T13:51:53;100561.75;;;4.51;96.66
31483;BME280;18103;52.246;8.052;2023-12-14T13:54:19;100555.06;;;4.45;96.94
31483;BME280;18103;52.246;8.052;2023-12-14T13:56:47;100558.81;;;4.57;96.33
31483;BME280;18103;52.246;8.052;2023-12-14T13:59:12;100552.34;;;4.64;97.18
31483;BME280;18103;52.246;8.052;2023-12-14T14:01:38;100571.06;;;4.56;97.38
31483;BME280;18103;52.246;8.052;2023-12-14T14:04:03;100567.91;;;4.50;97.19
31483;BME280;18103;52.246;8.052;2023-12-14T14:06:29;100575.19;;;4.43;97.03
31483;BME280;18103;52.246;8.052;2023-12-14T14:08:54;100582.50;;;4.54;96.86
31483;BME280;18103;52.246;8.052;2023-12-14T14:11:20;100594.25;;;4.62;97.11
31483;BME280;18103;52.246;8.052;2023-12-14T14:13:46;100603.78;;;4.46;96.98
31483;BME280;18103;52.246;8.052;2023-12-14T14:16:11;100614.63;;;4.38;97.68
31483;BME280;18103;52.246;8.052;2023-12-14T14:18:36;100618.97;;;4.38;98.07
31483;BME280;18103;52.246;8.052;2023-12-14T14:21:02;100624.41;;;4.52;96.44
31483;BME280;18103;52.246;8.052;2023-12-14T14:23:27;100626.94;;;4.54;96.72
31483;BME280;18103;52.246;8.052;2023-12-14T14:25:53;100630.56;;;4.51;96.50
31483;BME280;18103;52.246;8.052;2023-12-14T14:28:20;100634.00;;;4.52;96.67
31483;BME280;18103;52.246;8.052;2023-12-14T14:30:47;100637.41;;;4.54;96.96
31483;BME280;18103;52.246;8.052;2023-12-14T14:33:14;100637.25;;;4.57;96.63
31483;BME280;18103;52.246;8.052;2023-12-14T14:35:47;100642.97;;;4.46;97.39
31483;BME280;18103;52.246;8.052;2023-12-14T14:38:13;100644.69;;;4.47;97.28
31483;BME280;18103;52.246;8.052;2023-12-14T14:40:42;100642.22;;;4.44;97.84
31483;BME280;18103;52.246;8.052;2023-12-14T14:43:11;100652.28;;;4.34;97.61
31483;BME280;18103;52.246;8.052;2023-12-14T14:45:39;100657.00;;;4.45;97.41
31483;BME280;18103;52.246;8.052;2023-12-14T14:48:07;100662.97;;;4.47;96.59
31483;BME280;18103;52.246;8.052;2023-12-14T14:50:34;100664.03;;;4.43;96.99
31483;BME280;18103;52.246;8.052;2023-12-14T14:52:59;100671.88;;;4.43;97.42
31483;BME280;18103;52.246;8.052;2023-12-14T14:55:24;100669.31;;;4.60;97.23
31483;BME280;18103;52.246;8.052;2023-12-14T14:57:51;100671.50;;;4.87;96.36
31483;BME280;18103;52.246;8.052;2023-12-14T15:00:17;100673.72;;;4.95;96.75
31483;BME280;18103;52.246;8.052;2023-12-14T15:02:42;100678.91;;;4.60;97.17
31483;BME280;18103;52.246;8.052;2023-12-14T15:05:10;100681.91;;;4.52;97.33
31483;BME280;18103;52.246;8.052;2023-12-14T15:07:39;100692.03;;;4.41;96.95
31483;BME280;18103;52.246;8.052;2023-12-14T15:10:04;100691.16;;;4.59;97.19
31483;BME280;18103;52.246;8.052;2023-12-14T15:12:32;100691.72;;;4.47;96.99
31483;BME280;18103;52.246;8.052;2023-12-14T15:14:58;100706.69;;;4.43;97.97
31483;BME280;18103;52.246;8.052;2023-12-14T15:17:23;100703.81;;;4.50;97.46
31483;BME280;18103;52.246;8.052;2023-12-14T15:19:51;100699.97;;;4.57;97.45
31483;BME280;18103;52.246;8.052;2023-12-14T15:22:21;100708.63;;;4.59;97.00
31483;BME280;18103;52.246;8.052;2023-12-14T15:24:47;100705.50;;;4.51;97.08
31483;BME280;18103;52.246;8.052;2023-12-14T15:27:15;100714.53;;;4.43;96.95
31483;BME280;18103;52.246;8.052;2023-12-14T15:29:40;100721.47;;;4.44;97.52
31483;BME280;18103;52.246;8.052;2023-12-14T15:32:11;100716.81;;;4.51;97.63
31483;BME280;18103;52.246;8.052;2023-12-14T15:34:37;100721.88;;;4.54;98.10
31483;BME280;18103;52.246;8.052;2023-12-14T15:37:07;100725.63;;;4.68;97.64
31483;BME280;18103;52.246;8.052;2023-12-14T15:39:32;100724.16;;;4.62;97.37
31483;BME280;18103;52.246;8.052;2023-12-14T15:42:00;100726.03;;;4.95;96.67
31483;BME280;18103;52.246;8.052;2023-12-14T15:44:26;100730.47;;;4.75;96.63
31483;BME280;18103;52.246;8.052;2023-12-14T15:46:51;100733.38;;;4.88;97.17
31483;BME280;18103;52.246;8.052;2023-12-14T15:49:19;100729.53;;;4.95;97.06
31483;BME280;18103;52.246;8.052;2023-12-14T15:51:44;100732.13;;;4.95;96.61
31483;BME280;18103;52.246;8.052;2023-12-14T15:54:12;100735.50;;;4.97;97.13
31483;BME280;18103;52.246;8.052;2023-12-14T15:56:40;100730.28;;;4.97;97.12
31483;BME280;18103;52.246;8.052;2023-12-14T15:59:07;100729.47;;;4.78;97.48
31483;BME280;18103;52.246;8.052;2023-12-14T16:01:33;100748.25;;;4.69;97.46
31483;BME280;18103;52.246;8.052;2023-12-14T16:03:58;100740.69;;;4.43;98.03
31483;BME280;18103;52.246;8.052;2023-12-14T16:06:23;100739.41;;;4.52;98.19
31483;BME280;18103;52.246;8.052;2023-12-14T16:08:51;100745.63;;;4.50;97.33
31483;BME280;18103;52.246;8.052;2023-12-14T16:11:16;100754.53;;;4.45;97.80
31483;BME280;18103;52.246;8.052;2023-12-14T16:13:42;100763.50;;;4.40;97.70
31483;BME280;18103;52.246;8.052;2023-12-14T16:16:10;100765.53;;;4.33;97.89
31483;BME280;18103;52.246;8.052;2023-12-14T16:18:35;100769.00;;;4.34;97.65
31483;BME280;18103;52.246;8.052;2023-12-14T16:21:01;100771.91;;;4.47;97.75
31483;BME280;18103;52.246;8.052;2023-12-14T16:23:26;100772.34;;;4.56;98.13
31483;BME280;18103;52.246;8.052;2023-12-14T16:25:54;100777.72;;;4.34;97.47
31483;BME280;18103;52.246;8.052;2023-12-14T16:28:22;100779.88;;;4.43;98.15
31483;BME280;18103;52.246;8.052;2023-12-14T16:30:50;100791.59;;;4.35;98.73
31483;BME280;18103;52.246;8.052;2023-12-14T16:33:18;100791.13;;;4.45;98.47
31483;BME280;18103;52.246;8.052;2023-12-14T16:35:48;100800.16;;;4.38;98.35
31483;BME280;18103;52.246;8.052;2023-12-14T16:38:16;100797.75;;;4.34;98.56
31483;BME280;18103;52.246;8.052;2023-12-14T16:40:46;100807.94;;;4.40;98.16
31483;BME280;18103;52.246;8.052;2023-12-14T16:43:11;100806.53;;;4.52;98.44
31483;BME280;18103;52.246;8.052;2023-12-14T16:45:36;100804.78;;;4.52;98.34
31483;BME280;18103;52.246;8.052;2023-12-14T16:48:02;100804.59;;;4.36;98.82
31483;BME280;18103;52.246;8.052;2023-12-14T16:50:31;100806.44;;;4.34;98.42
31483;BME280;18103;52.246;8.052;2023-12-14T16:52:59;100813.09;;;4.41;98.89
31483;BME280;18103;52.246;8.052;2023-12-14T16:55:25;100815.56;;;4.44;98.70
31483;BME280;18103;52.246;8.052;2023-12-14T16:57:52;100818.97;;;4.47;98.60
31483;BME280;18103;52.246;8.052;2023-12-14T17:00:18;100821.44;;;4.50;98.99
31483;BME280;18103;52.246;8.052;2023-12-14T17:02:44;100825.03;;;4.47;99.12
31483;BME280;18103;52.246;8.052;2023-12-14T17:05:12;100834.72;;;4.45;98.39
31483;BME280;18103;52.246;8.052;2023-12-14T17:07:37;100844.38;;;4.43;98.67
31483;BME280;18103;52.246;8.052;2023-12-14T17:10:06;100849.41;;;4.48;98.80
31483;BME280;18103;52.246;8.052;2023-12-14T17:12:34;100853.41;;;4.36;99.15
31483;BME280;18103;52.246;8.052;2023-12-14T17:14:59;100853.41;;;4.36;98.89
31483;BME280;18103;52.246;8.052;2023-12-14T17:17:30;100852.44;;;4.38;99.00
31483;BME280;18103;52.246;8.052;2023-12-14T17:19:59;100856.63;;;4.42;99.51
31483;BME280;18103;52.246;8.052;2023-12-14T17:22:24;100858.38;;;4.42;99.47
31483;BME280;18103;52.246;8.052;2023-12-14T17:24:54;100860.28;;;4.57;98.61
31483;BME280;18103;52.246;8.052;2023-12-14T17:27:19;100865.22;;;4.44;99.19
31483;BME280;18103;52.246;8.052;2023-12-14T17:29:45;100865.28;;;4.43;99.54
31483;BME280;18103;52.246;8.052;2023-12-14T17:32:13;100870.72;;;4.59;98.48
31483;BME280;18103;52.246;8.052;2023-12-14T17:34:38;100875.75;;;4.43;98.46
31483;BME280;18103;52.246;8.052;2023-12-14T17:37:04;100877.91;;;4.33;98.86
31483;BME280;18103;52.246;8.052;2023-12-14T17:39:29;100875.38;;;4.32;98.66
31483;BME280;18103;52.246;8.052;2023-12-14T17:41:57;100884.72;;;4.37;99.28
31483;BME280;18103;52.246;8.052;2023-12-14T17:44:22;100883.94;;;4.35;99.04
31483;BME280;18103;52.246;8.052;2023-12-14T17:46:48;100896.22;;;4.33;99.15
31483;BME280;18103;52.246;8.052;2023-12-14T17:49:13;100895.31;;;4.34;98.93
31483;BME280;18103;52.246;8.052;2023-12-14T17:51:41;100906.00;;;4.28;98.79
31483;BME280;18103;52.246;8.052;2023-12-14T17:54:07;100910.59;;;4.23;99.33
31483;BME280;18103;52.246;8.052;2023-12-14T17:56:32;100918.81;;;4.14;99.27
31483;BME280;18103;52.246;8.052;2023-12-14T17:58:58;100912.81;;;4.11;99.29
31483;BME280;18103;52.246;8.052;2023-12-14T18:01:24;100923.84;;;4.18;98.70
31483;BME280;18103;52.246;8.052;2023-12-14T18:03:54;100929.66;;;4.25;98.49
31483;BME280;18103;52.246;8.052;2023-12-14T18:06:19;100932.47;;;4.20;98.64
31483;BME280;18103;52.246;8.052;2023-12-14T18:08:47;100935.63;;;4.28;97.89